createdAt,value
2019-03-03T00:01:54.585Z,16.00
2019-03-03T00:04:28.187Z,14.33
2019-03-03T00:07:01.888Z,15.33
2019-03-03T00:09:35.626Z,15.57
2019-03-03T00:12:09.300Z,14.90
2019-03-03T00:14:43.007Z,15.70
2019-03-03T00:17:17.041Z,17.10
2019-03-03T00:19:50.718Z,15.83
2019-03-03T00:22:24.315Z,16.00
2019-03-03T00:24:58.052Z,14.50
2019-03-03T00:27:31.728Z,14.97
2019-03-03T00:30:08.510Z,15.80
2019-03-03T00:32:42.182Z,14.53
2019-03-03T00:35:16.117Z,15.53
2019-03-03T00:37:55.671Z,17.60
2019-03-03T00:40:43.284Z,13.93
2019-03-03T00:43:34.917Z,14.70
2019-03-03T00:46:10.578Z,15.03
2019-03-03T00:48:51.838Z,14.87
2019-03-03T00:51:30.022Z,14.10
2019-03-03T00:54:08.233Z,14.83
2019-03-03T00:56:49.173Z,14.77
2019-03-03T00:59:24.473Z,14.60
2019-03-03T01:02:02.708Z,14.40
2019-03-03T01:04:53.080Z,14.57
2019-03-03T01:07:44.502Z,12.93
2019-03-03T01:10:28.663Z,14.93
2019-03-03T01:13:16.091Z,15.23
2019-03-03T01:16:06.682Z,14.27
2019-03-03T01:18:47.596Z,14.30
2019-03-03T01:21:41.366Z,13.97
2019-03-03T01:24:19.470Z,14.57
2019-03-03T01:26:53.144Z,13.73
2019-03-03T01:29:27.122Z,14.87
2019-03-03T01:32:02.758Z,14.60
2019-03-03T01:34:36.487Z,15.10
2019-03-03T01:37:10.320Z,13.77
2019-03-03T01:39:43.940Z,14.43
2019-03-03T01:42:17.870Z,13.17
2019-03-03T01:44:51.558Z,14.13
2019-03-03T01:47:25.167Z,14.03
2019-03-03T01:50:00.797Z,14.33
2019-03-03T01:52:34.114Z,13.90
2019-03-03T01:55:11.162Z,14.90
2019-03-03T01:57:44.839Z,14.17
2019-03-03T02:00:26.540Z,14.57
2019-03-03T02:03:00.357Z,14.43
2019-03-03T02:05:34.166Z,15.27
2019-03-03T02:08:08.394Z,15.10
2019-03-03T02:10:42.404Z,14.60
2019-03-03T02:13:18.967Z,14.30
2019-03-03T02:15:52.550Z,15.47
2019-03-03T02:18:26.190Z,15.50
2019-03-03T02:20:59.790Z,14.87
2019-03-03T02:23:33.448Z,15.87
2019-03-03T02:26:07.099Z,15.77
2019-03-03T02:28:40.870Z,15.47
2019-03-03T02:31:14.862Z,15.63
2019-03-03T02:33:48.572Z,15.87
2019-03-03T02:36:22.317Z,14.70
2019-03-03T02:38:55.990Z,14.27
2019-03-03T02:41:29.598Z,15.03
2019-03-03T02:44:03.269Z,14.77
2019-03-03T02:46:36.847Z,14.57
2019-03-03T02:49:10.470Z,14.70
2019-03-03T02:51:44.243Z,14.57
2019-03-03T02:54:18.313Z,15.67
2019-03-03T02:56:52.053Z,16.07
2019-03-03T02:59:25.696Z,14.13
2019-03-03T03:01:59.852Z,14.40
2019-03-03T03:04:33.509Z,14.03
2019-03-03T03:07:14.720Z,13.60
2019-03-03T03:09:55.862Z,13.53
2019-03-03T03:12:31.279Z,13.57
2019-03-03T03:15:08.380Z,14.30
2019-03-03T03:17:43.693Z,13.20
2019-03-03T03:20:28.056Z,14.13
2019-03-03T03:23:09.239Z,12.83
2019-03-03T03:25:44.555Z,14.17
2019-03-03T03:28:35.768Z,13.73
2019-03-03T03:31:26.324Z,13.63
2019-03-03T03:34:10.717Z,14.70
2019-03-03T03:36:46.088Z,16.07
2019-03-03T03:39:30.647Z,14.97
2019-03-03T03:42:15.085Z,15.00
2019-03-03T03:44:50.407Z,15.50
2019-03-03T03:47:31.730Z,14.97
2019-03-03T03:50:15.413Z,14.53
2019-03-03T03:52:57.781Z,14.87
2019-03-03T03:55:49.911Z,15.40
2019-03-03T03:58:31.227Z,15.50
2019-03-03T04:01:22.188Z,15.80
2019-03-03T04:03:57.583Z,14.60
2019-03-03T04:06:33.021Z,15.83
2019-03-03T04:09:11.340Z,15.23
2019-03-03T04:12:01.884Z,15.77
2019-03-03T04:14:37.143Z,16.07
2019-03-03T04:17:18.287Z,15.30
2019-03-03T04:20:08.723Z,15.23
2019-03-03T04:22:46.916Z,16.33
2019-03-03T04:25:22.436Z,16.00
2019-03-03T04:27:57.801Z,16.20
2019-03-03T04:30:35.777Z,16.67
2019-03-03T04:33:27.471Z,16.30
2019-03-03T04:36:11.719Z,17.23
2019-03-03T04:38:56.235Z,16.13
2019-03-03T04:41:37.337Z,17.10
2019-03-03T04:44:12.608Z,16.40
2019-03-03T04:46:53.976Z,15.90
2019-03-03T04:49:29.309Z,16.97
2019-03-03T04:52:07.260Z,16.97
2019-03-03T04:54:42.553Z,16.60
2019-03-03T04:57:18.582Z,17.40
2019-03-03T04:59:53.889Z,16.77
2019-03-03T05:02:45.899Z,17.80
2019-03-03T05:05:21.473Z,16.70
2019-03-03T05:10:58.165Z,16.17
2019-03-03T05:13:33.521Z,16.37
2019-03-03T05:16:11.867Z,17.97
2019-03-03T05:18:47.133Z,17.20
2019-03-03T05:21:21.054Z,17.67
2019-03-03T05:23:54.679Z,17.83
2019-03-03T05:26:28.663Z,17.83
2019-03-03T05:29:02.356Z,17.40
2019-03-03T05:31:36.061Z,18.20
2019-03-03T05:34:09.737Z,18.57
2019-03-03T05:36:43.353Z,17.73
2019-03-03T05:39:17.057Z,19.00
2019-03-03T05:41:50.779Z,17.17
2019-03-03T05:44:24.407Z,18.70
2019-03-03T05:46:58.114Z,17.97
2019-03-03T05:49:31.795Z,18.07
2019-03-03T05:52:05.593Z,18.73
2019-03-03T05:54:39.287Z,19.23
2019-03-03T05:57:13.023Z,19.10
2019-03-03T05:59:46.805Z,19.13
2019-03-03T06:02:20.357Z,19.20
2019-03-03T06:04:53.984Z,19.57
2019-03-03T06:07:29.537Z,19.90
2019-03-03T06:10:04.065Z,19.77
2019-03-03T06:12:37.836Z,20.77
2019-03-03T06:15:14.139Z,20.17
2019-03-03T06:17:48.449Z,19.40
2019-03-03T06:20:22.892Z,20.17
2019-03-03T06:22:58.218Z,19.87
2019-03-03T06:25:32.313Z,20.03
2019-03-03T06:28:06.165Z,20.47
2019-03-03T06:30:39.829Z,20.13
2019-03-03T06:33:13.524Z,18.43
2019-03-03T06:35:50.462Z,18.50
2019-03-03T06:38:24.205Z,20.90
2019-03-03T06:40:58.125Z,19.97
2019-03-03T06:43:34.151Z,20.17
2019-03-03T06:46:10.651Z,19.43
2019-03-03T06:48:44.407Z,20.83
2019-03-03T06:51:18.025Z,18.67
2019-03-03T06:53:51.707Z,19.60
2019-03-03T07:06:46.427Z,20.37
2019-03-03T07:09:20.127Z,21.67
2019-03-03T07:11:53.760Z,23.43
2019-03-03T07:14:27.460Z,22.10
2019-03-03T07:17:01.287Z,23.23
2019-03-03T07:19:35.015Z,21.00
2019-03-03T07:22:10.180Z,20.37
2019-03-03T07:24:43.820Z,22.33
2019-03-03T07:27:17.467Z,22.03
2019-03-03T07:29:51.190Z,22.10
2019-03-03T07:32:25.179Z,21.20
2019-03-03T07:35:02.680Z,20.67
2019-03-03T07:37:36.337Z,22.20
2019-03-03T07:40:10.097Z,23.13
2019-03-03T07:42:44.009Z,33.23
2019-03-03T07:45:17.786Z,40.73
2019-03-03T07:47:51.496Z,28.20
2019-03-03T07:50:25.748Z,23.93
2019-03-03T07:52:59.425Z,23.60
2019-03-03T07:55:33.044Z,27.17
2019-03-03T07:58:07.394Z,25.20
2019-03-03T08:00:41.467Z,22.27
2019-03-03T08:03:15.174Z,23.57
2019-03-03T08:05:48.929Z,23.37
2019-03-03T08:08:22.892Z,25.40
2019-03-03T08:10:56.597Z,22.53
2019-03-03T08:13:30.133Z,23.97
2019-03-03T08:16:04.054Z,24.77
2019-03-03T08:18:37.826Z,23.93
2019-03-03T08:21:11.484Z,22.77
2019-03-03T08:23:45.188Z,22.73
2019-03-03T08:26:18.863Z,22.53
2019-03-03T08:28:52.600Z,23.40
2019-03-03T08:31:26.606Z,29.90
2019-03-03T08:34:00.369Z,23.97
2019-03-03T08:36:33.979Z,22.27
2019-03-03T08:39:07.715Z,23.03
2019-03-03T08:41:42.982Z,21.47
2019-03-03T08:44:18.314Z,22.63
2019-03-03T08:46:56.816Z,21.87
2019-03-03T08:49:32.164Z,24.23
2019-03-03T08:52:07.535Z,25.83
2019-03-03T08:55:00.130Z,24.80
2019-03-03T08:57:35.594Z,22.47
2019-03-03T09:00:14.307Z,23.80
2019-03-03T09:03:05.050Z,24.93
2019-03-03T09:05:49.216Z,24.17
2019-03-03T09:08:27.665Z,23.80
2019-03-03T09:11:02.857Z,24.17
2019-03-03T09:13:38.273Z,23.37
2019-03-03T09:16:13.591Z,22.13
2019-03-03T09:19:05.157Z,23.87
2019-03-03T09:21:49.581Z,25.50
2019-03-03T09:24:41.361Z,24.90
2019-03-03T09:27:19.263Z,23.67
2019-03-03T09:29:54.509Z,24.07
2019-03-03T09:32:29.929Z,24.00
2019-03-03T09:35:22.162Z,23.80
2019-03-03T09:38:12.393Z,24.27
2019-03-03T09:40:47.821Z,24.60
2019-03-03T09:43:32.023Z,25.00
2019-03-03T09:46:19.509Z,25.47
2019-03-03T09:48:54.766Z,24.27
2019-03-03T09:51:35.696Z,24.23
2019-03-03T09:54:11.095Z,25.43
2019-03-03T09:57:04.504Z,25.13
2019-03-03T09:59:39.822Z,25.80
2019-03-03T10:02:15.496Z,24.50
2019-03-03T10:04:50.828Z,24.73
2019-03-03T10:07:44.528Z,25.60
2019-03-03T10:10:26.026Z,24.33
2019-03-03T10:13:10.159Z,25.00
2019-03-03T10:15:45.607Z,25.33
2019-03-03T10:18:32.638Z,25.70
2019-03-03T10:21:10.810Z,25.67
2019-03-03T10:23:49.074Z,26.13
2019-03-03T10:26:42.932Z,25.93
2019-03-03T10:29:21.186Z,24.50
2019-03-03T10:32:12.862Z,28.27
2019-03-03T10:34:48.222Z,26.93
2019-03-03T10:37:29.196Z,28.17
2019-03-03T10:43:05.920Z,31.33
2019-03-03T10:45:53.489Z,29.53
2019-03-03T10:48:34.630Z,28.73
2019-03-03T10:51:18.946Z,33.50
2019-03-03T10:53:57.981Z,31.23
2019-03-03T10:56:33.358Z,30.80
2019-03-03T10:59:24.990Z,31.47
2019-03-03T11:02:08.260Z,29.27
2019-03-03T11:04:49.544Z,29.27
2019-03-03T11:07:41.038Z,30.73
2019-03-03T11:10:16.516Z,28.70
2019-03-03T11:12:54.528Z,29.83
2019-03-03T11:15:42.020Z,31.40
2019-03-03T11:18:33.732Z,31.67
2019-03-03T11:21:11.813Z,30.40
2019-03-03T11:23:47.130Z,31.07
2019-03-03T11:26:22.601Z,30.23
2019-03-03T11:29:00.904Z,30.97
2019-03-03T11:31:39.865Z,30.07
2019-03-03T11:34:17.807Z,29.47
2019-03-03T11:36:53.252Z,28.90
2019-03-03T11:39:28.734Z,29.23
2019-03-03T11:42:13.113Z,29.60
2019-03-03T11:44:53.813Z,29.50
2019-03-03T11:47:34.931Z,29.63
2019-03-03T11:50:11.619Z,26.13
2019-03-03T11:53:05.027Z,25.73
2019-03-03T11:55:56.416Z,25.83
2019-03-03T11:58:34.317Z,25.00
2019-03-03T12:01:16.754Z,25.83
2019-03-03T12:03:52.107Z,24.57
2019-03-03T12:06:46.766Z,24.30
2019-03-03T12:09:23.521Z,24.60
2019-03-03T12:12:17.037Z,25.33
2019-03-03T12:15:01.272Z,33.53
2019-03-03T12:17:54.968Z,27.30
2019-03-03T12:20:30.422Z,26.07
2019-03-03T12:23:14.844Z,24.77
2019-03-03T12:25:58.829Z,26.03
2019-03-03T12:28:50.375Z,25.30
2019-03-03T12:31:43.873Z,25.57
2019-03-03T12:34:37.643Z,25.37
2019-03-03T12:37:13.041Z,25.97
2019-03-03T12:39:51.297Z,26.03
2019-03-03T12:42:29.521Z,25.33
2019-03-03T12:45:04.950Z,24.87
2019-03-03T12:47:40.290Z,24.13
2019-03-03T12:50:30.657Z,26.13
2019-03-03T12:53:15.183Z,24.97
2019-03-03T12:56:05.483Z,23.43
2019-03-03T12:58:40.870Z,24.10
2019-03-03T13:01:28.382Z,23.10
2019-03-03T13:04:05.275Z,23.37
2019-03-03T13:06:40.839Z,23.00
2019-03-03T13:09:35.183Z,20.20
2019-03-03T13:12:10.503Z,18.27
2019-03-03T13:14:54.849Z,19.63
2019-03-03T13:17:33.091Z,17.57
2019-03-03T13:20:13.015Z,17.10
2019-03-03T13:22:57.388Z,16.93
2019-03-03T13:25:34.153Z,15.03
2019-03-03T13:28:12.297Z,16.53
2019-03-03T13:34:12.252Z,15.37
2019-03-03T13:36:47.585Z,15.00
2019-03-03T13:39:22.894Z,14.80
2019-03-03T13:41:58.339Z,15.03
2019-03-03T13:44:32.086Z,14.83
2019-03-03T13:47:05.864Z,13.90
2019-03-03T13:49:39.635Z,13.47
2019-03-03T13:52:13.815Z,13.87
2019-03-03T13:54:47.566Z,12.03
2019-03-03T13:57:21.385Z,11.77
2019-03-03T13:59:55.003Z,12.47
2019-03-03T14:02:28.790Z,10.43
2019-03-03T14:05:02.506Z,11.40
2019-03-03T14:07:36.505Z,12.10
2019-03-03T14:10:11.025Z,11.13
2019-03-03T14:12:45.236Z,11.50
2019-03-03T14:15:20.241Z,9.80
2019-03-03T14:17:53.947Z,10.67
2019-03-03T14:20:27.679Z,10.30
2019-03-03T14:23:01.433Z,10.57
2019-03-03T14:25:35.926Z,8.90
2019-03-03T14:28:09.713Z,9.13
2019-03-03T14:30:43.366Z,9.10
2019-03-03T14:33:17.154Z,8.63
2019-03-03T14:35:50.813Z,9.80
2019-03-03T14:38:24.541Z,9.40
2019-03-03T14:40:58.351Z,8.90
2019-03-03T14:43:33.419Z,9.20
2019-03-03T14:46:07.231Z,8.33
2019-03-03T14:48:40.960Z,8.67
2019-03-03T14:51:14.709Z,9.53
2019-03-03T14:53:48.333Z,9.10
2019-03-03T14:56:22.046Z,8.67
2019-03-03T14:58:55.957Z,8.47
2019-03-03T15:01:29.656Z,8.20
2019-03-03T15:04:03.579Z,9.20
2019-03-03T15:06:37.366Z,8.97
2019-03-03T15:09:15.596Z,8.97
2019-03-03T15:11:49.549Z,9.90
2019-03-03T15:14:23.294Z,10.37
2019-03-03T15:16:58.532Z,9.87
2019-03-03T15:19:32.230Z,9.03
2019-03-03T15:22:06.324Z,9.20
2019-03-03T15:24:40.106Z,9.53
2019-03-03T15:27:14.307Z,9.77
2019-03-03T15:29:47.944Z,8.57
2019-03-03T15:32:21.732Z,9.10
2019-03-03T15:34:55.396Z,8.13
2019-03-03T15:37:29.302Z,8.53
2019-03-03T15:40:03.134Z,9.17
2019-03-03T15:42:36.893Z,8.27
2019-03-03T15:45:13.890Z,8.77
2019-03-03T15:47:47.953Z,8.27
2019-03-03T15:50:22.985Z,8.73
2019-03-03T15:52:57.612Z,8.33
2019-03-03T15:55:32.385Z,8.27
2019-03-03T15:58:06.090Z,8.43
2019-03-03T16:00:41.725Z,8.00
2019-03-03T16:03:15.851Z,7.40
2019-03-03T16:05:49.609Z,7.73
2019-03-03T16:08:23.474Z,8.40
2019-03-03T16:10:57.105Z,7.73
2019-03-03T16:13:30.800Z,8.07
2019-03-03T16:16:05.414Z,8.10
2019-03-03T16:18:39.093Z,8.10
2019-03-03T16:21:12.795Z,8.30
2019-03-03T16:23:46.571Z,8.87
2019-03-03T16:26:20.275Z,9.37
2019-03-03T16:28:54.050Z,8.93
2019-03-03T16:31:27.786Z,9.60
2019-03-03T16:34:01.413Z,9.80
2019-03-03T16:36:35.118Z,9.97
2019-03-03T16:39:09.133Z,10.63
2019-03-03T16:41:42.906Z,9.33
2019-03-03T16:44:16.720Z,9.23
2019-03-03T16:46:50.488Z,10.10
2019-03-03T16:49:24.350Z,10.10
2019-03-03T16:51:58.124Z,10.23
2019-03-03T16:54:31.786Z,8.93
2019-03-03T16:57:05.625Z,9.93
2019-03-03T16:59:39.382Z,9.40
2019-03-03T17:02:13.070Z,9.50
2019-03-03T17:04:47.030Z,9.60
2019-03-03T17:07:20.642Z,9.13
2019-03-03T17:09:54.304Z,8.97
2019-03-03T17:12:28.107Z,8.97
2019-03-03T17:15:01.732Z,9.40
2019-03-03T17:17:35.586Z,9.50
2019-03-03T17:20:10.586Z,9.57
2019-03-03T17:22:44.203Z,10.33
2019-03-03T17:25:26.183Z,10.27
2019-03-03T17:27:59.877Z,9.67
2019-03-03T17:30:33.585Z,9.50
2019-03-03T17:33:07.336Z,10.40
2019-03-03T17:35:41.114Z,9.17
2019-03-03T17:38:18.008Z,9.03
2019-03-03T17:40:51.925Z,9.57
2019-03-03T17:43:25.863Z,8.90
2019-03-03T17:45:59.946Z,9.00
2019-03-03T17:48:34.196Z,9.10
2019-03-03T17:51:08.049Z,8.70
2019-03-03T17:53:42.465Z,8.27
2019-03-03T17:56:16.956Z,8.30
2019-03-03T17:58:51.060Z,8.40
2019-03-03T18:01:24.927Z,8.50
2019-03-03T18:03:58.798Z,7.40
2019-03-03T18:06:38.855Z,7.37
2019-03-03T18:09:17.223Z,7.40
2019-03-03T18:11:51.450Z,7.00
2019-03-03T18:14:25.493Z,7.07
2019-03-03T18:16:59.134Z,7.70
2019-03-03T18:19:32.868Z,7.10
2019-03-03T18:22:06.635Z,7.10
2019-03-03T18:24:40.292Z,6.73
2019-03-03T18:27:14.205Z,6.57
2019-03-03T18:29:47.897Z,5.90
2019-03-03T18:32:21.697Z,6.37
2019-03-03T18:34:55.592Z,6.57
2019-03-03T18:37:29.381Z,6.57
2019-03-03T18:40:03.529Z,6.80
2019-03-03T18:42:37.177Z,6.33
2019-03-03T18:45:14.656Z,5.97
2019-03-03T18:47:52.140Z,6.60
2019-03-03T18:50:30.138Z,6.60
2019-03-03T18:53:03.867Z,7.03
2019-03-03T18:55:37.714Z,5.93
2019-03-03T18:58:11.468Z,6.50
2019-03-03T19:00:45.347Z,6.80
2019-03-03T19:03:21.643Z,6.50
2019-03-03T19:05:56.040Z,6.20
2019-03-03T19:08:31.541Z,6.83
2019-03-03T19:11:06.730Z,7.23
2019-03-03T19:13:41.245Z,7.27
2019-03-03T19:16:15.053Z,7.53
2019-03-03T19:18:48.733Z,8.33
2019-03-03T19:21:22.501Z,8.00
2019-03-03T19:23:56.261Z,7.83
2019-03-03T19:26:29.935Z,8.83
2019-03-03T19:29:03.763Z,7.77
2019-03-03T19:31:37.541Z,8.33
2019-03-03T19:34:11.887Z,7.87
2019-03-03T19:36:45.903Z,8.87
2019-03-03T19:39:19.878Z,8.43
2019-03-03T19:41:53.600Z,8.40
2019-03-03T19:44:27.382Z,8.27
2019-03-03T19:47:01.215Z,8.33
2019-03-03T19:49:34.984Z,8.53
2019-03-03T19:52:08.825Z,8.77
2019-03-03T19:54:42.600Z,10.13
2019-03-03T19:57:17.969Z,9.77
2019-03-03T19:59:51.772Z,9.23
2019-03-03T20:02:25.560Z,10.90
2019-03-03T20:04:59.304Z,10.17
2019-03-03T20:07:33.059Z,10.00
2019-03-03T20:10:10.070Z,11.13
2019-03-03T20:12:43.873Z,9.67
2019-03-03T20:15:17.678Z,10.70
2019-03-03T20:17:51.474Z,11.30
2019-03-03T20:20:25.288Z,11.83
2019-03-03T20:22:59.179Z,11.40
2019-03-03T20:25:32.784Z,11.47
2019-03-03T20:28:07.738Z,11.67
2019-03-03T20:30:42.289Z,13.17
2019-03-03T20:33:15.977Z,13.40
2019-03-03T20:35:49.679Z,14.67
2019-03-03T20:38:23.472Z,14.53
2019-03-03T20:40:57.257Z,17.73
2019-03-03T20:43:33.995Z,18.07
2019-03-03T20:46:10.511Z,18.10
2019-03-03T20:48:44.648Z,16.70
2019-03-03T20:51:18.469Z,14.10
2019-03-03T20:53:52.479Z,14.97
2019-03-03T20:56:26.299Z,15.20
2019-03-03T20:59:00.053Z,14.53
2019-03-03T21:01:33.936Z,12.77
2019-03-03T21:04:07.823Z,10.70
2019-03-03T21:06:41.598Z,8.20
2019-03-03T21:09:15.609Z,8.53
2019-03-03T21:11:49.303Z,7.73
2019-03-03T21:14:23.173Z,6.97
2019-03-03T21:16:57.040Z,7.30
2019-03-03T21:19:31.320Z,6.97
2019-03-03T21:22:05.222Z,6.40
2019-03-03T21:24:38.972Z,7.03
2019-03-03T21:27:12.689Z,7.07
2019-03-03T21:29:46.466Z,6.13
2019-03-03T21:32:20.065Z,6.40
2019-03-03T21:34:53.857Z,5.90
2019-03-03T21:37:27.625Z,5.93
2019-03-03T21:40:01.300Z,6.43
2019-03-03T21:42:35.001Z,6.97
2019-03-03T21:45:14.337Z,5.87
2019-03-03T21:47:48.100Z,6.47
2019-03-03T21:50:23.996Z,6.40
2019-03-03T21:52:57.893Z,6.33
2019-03-03T21:55:31.604Z,6.47
2019-03-03T21:58:07.138Z,6.00
2019-03-03T22:00:42.311Z,5.57
2019-03-03T22:03:16.029Z,5.30
2019-03-03T22:05:49.625Z,6.30
2019-03-03T22:08:23.433Z,6.27
2019-03-03T22:10:57.183Z,6.90
2019-03-03T22:13:30.795Z,6.80
2019-03-03T22:16:04.624Z,7.43
2019-03-03T22:18:38.428Z,6.17
2019-03-03T22:21:13.229Z,8.23
2019-03-03T22:23:46.856Z,7.57
2019-03-03T22:26:20.604Z,8.70
2019-03-03T22:28:54.465Z,9.17
2019-03-03T22:31:28.681Z,9.53
2019-03-03T22:34:02.332Z,9.83
2019-03-03T22:36:35.988Z,9.63
2019-03-03T22:39:09.843Z,9.37
2019-03-03T22:41:43.489Z,8.70
2019-03-03T22:44:17.137Z,7.80
2019-03-03T22:46:51.424Z,8.23
2019-03-03T22:49:25.056Z,8.10
2019-03-03T22:51:58.777Z,7.53
2019-03-03T22:54:32.525Z,8.30
2019-03-03T22:57:07.103Z,7.23
2019-03-03T22:59:40.831Z,7.17
2019-03-03T23:02:16.164Z,7.93
2019-03-03T23:04:55.929Z,7.67
2019-03-03T23:07:39.829Z,7.27
2019-03-03T23:10:37.548Z,7.07
2019-03-03T23:13:26.074Z,7.23
2019-03-03T23:16:27.042Z,8.70
2019-03-03T23:19:29.479Z,9.63
2019-03-03T23:22:24.163Z,9.87
2019-03-03T23:25:23.361Z,9.23
2019-03-03T23:27:57.032Z,9.00
2019-03-03T23:30:30.874Z,7.20
2019-03-03T23:33:05.056Z,7.80
2019-03-03T23:35:38.803Z,7.53
2019-03-03T23:38:12.671Z,7.40
2019-03-03T23:40:46.414Z,7.20
2019-03-03T23:43:20.107Z,6.90
2019-03-03T23:45:54.049Z,6.40
2019-03-03T23:48:27.686Z,6.73
2019-03-03T23:51:01.355Z,6.83
2019-03-03T23:53:35.439Z,7.03
2019-03-03T23:56:09.155Z,7.13
2019-03-03T23:58:42.894Z,8.20
